createdAt,value
2022-11-23T00:00:22.124Z,32.70
2022-11-23T00:02:57.676Z,28.70
2022-11-23T00:05:30.251Z,28.10
2022-11-23T00:08:01.084Z,30.70
2022-11-23T00:10:31.911Z,29.50
2022-11-23T00:13:03.196Z,29.10
2022-11-23T00:15:34.005Z,30.00
2022-11-23T00:18:05.183Z,28.40
2022-11-23T00:20:36.303Z,27.00
2022-11-23T00:23:07.148Z,30.80
2022-11-23T00:25:38.810Z,31.00
2022-11-23T00:28:09.657Z,28.20
2022-11-23T00:30:42.336Z,27.10
2022-11-23T00:33:13.354Z,27.90
2022-11-23T00:35:44.209Z,29.40
2022-11-23T00:38:15.156Z,28.30
2022-11-23T00:40:46.035Z,29.70
2022-11-23T00:43:16.928Z,26.60
2022-11-23T00:45:49.527Z,29.00
2022-11-23T00:48:21.442Z,28.00
2022-11-23T00:50:52.677Z,30.30
2022-11-23T00:53:23.499Z,26.50
2022-11-23T00:55:56.450Z,29.30
2022-11-23T00:58:27.900Z,25.30
2022-11-23T01:01:07.682Z,29.50
2022-11-23T01:03:41.084Z,29.50
2022-11-23T01:06:15.136Z,29.00
2022-11-23T01:08:49.565Z,29.20
2022-11-23T01:11:21.755Z,31.70
2022-11-23T01:13:53.436Z,24.90
2022-11-23T01:16:26.226Z,26.90
2022-11-23T01:18:58.069Z,29.30
2022-11-23T01:21:30.878Z,25.10
2022-11-23T01:24:05.086Z,27.20
2022-11-23T01:26:36.225Z,28.10
2022-11-23T01:29:07.137Z,27.20
2022-11-23T01:31:41.830Z,27.40
2022-11-23T01:34:19.022Z,27.50
2022-11-23T01:36:49.944Z,30.80
2022-11-23T01:39:20.767Z,27.20
2022-11-23T01:41:51.685Z,26.40
2022-11-23T01:44:30.229Z,26.10
2022-11-23T01:47:03.187Z,28.60
2022-11-23T01:49:37.911Z,24.00
2022-11-23T01:52:15.218Z,28.90
2022-11-23T01:54:49.324Z,27.50
2022-11-23T01:57:24.045Z,28.80
2022-11-23T01:59:56.477Z,27.30
2022-11-23T02:02:29.716Z,23.00
2022-11-23T02:05:02.524Z,26.40
2022-11-23T02:07:34.993Z,27.30
2022-11-23T02:10:07.249Z,26.90
2022-11-23T02:12:38.201Z,26.40
2022-11-23T02:15:10.561Z,26.60
2022-11-23T02:17:41.573Z,25.70
2022-11-23T02:20:18.816Z,29.00
2022-11-23T02:23:03.163Z,21.80
2022-11-23T02:25:42.567Z,23.80
2022-11-23T02:28:17.924Z,19.00
2022-11-23T02:33:20.720Z,22.80
2022-11-23T02:35:55.010Z,21.20
2022-11-23T02:38:31.250Z,22.10
2022-11-23T02:41:02.326Z,20.40
2022-11-23T02:43:36.058Z,17.70
2022-11-23T02:46:07.882Z,25.20
2022-11-23T02:48:38.733Z,24.10
2022-11-23T02:51:09.580Z,23.70
2022-11-23T02:53:40.623Z,21.30
2022-11-23T02:56:13.821Z,24.70
2022-11-23T02:58:44.635Z,25.90
2022-11-23T03:01:15.767Z,24.20
2022-11-23T03:03:48.817Z,25.40
2022-11-23T03:06:19.667Z,24.70
2022-11-23T03:08:51.892Z,24.90
2022-11-23T03:11:22.804Z,26.00
2022-11-23T03:13:54.195Z,21.80
2022-11-23T03:16:25.560Z,25.40
2022-11-23T03:18:56.470Z,25.60
2022-11-23T03:21:27.728Z,25.90
2022-11-23T03:23:59.341Z,24.40
2022-11-23T03:26:30.657Z,23.80
2022-11-23T03:29:07.977Z,24.80
2022-11-23T03:31:39.019Z,24.50
2022-11-23T03:34:13.423Z,23.80
2022-11-23T03:36:44.324Z,26.70
2022-11-23T03:39:15.693Z,24.70
2022-11-23T03:41:52.858Z,25.70
2022-11-23T03:44:28.118Z,25.80
2022-11-23T03:46:59.571Z,25.60
2022-11-23T03:49:31.665Z,23.70
2022-11-23T03:52:02.952Z,25.80
2022-11-23T03:54:33.951Z,24.60
2022-11-23T03:57:04.910Z,24.20
2022-11-23T03:59:36.596Z,25.40
2022-11-23T04:02:08.654Z,26.60
2022-11-23T04:04:44.565Z,27.00
2022-11-23T04:07:38.590Z,24.80
2022-11-23T04:10:11.152Z,25.30
2022-11-23T04:13:04.332Z,25.50
2022-11-23T04:15:35.481Z,24.30
2022-11-23T04:18:07.068Z,22.70
2022-11-23T04:20:38.109Z,24.50
2022-11-23T04:23:13.080Z,24.80
2022-11-23T04:25:45.110Z,24.80
2022-11-23T04:28:16.795Z,20.30
2022-11-23T04:30:48.246Z,20.80
2022-11-23T04:33:19.493Z,23.50
2022-11-23T04:35:50.691Z,16.30
2022-11-23T04:38:21.705Z,21.70
2022-11-23T04:40:52.942Z,21.10
2022-11-23T04:43:24.468Z,22.20
2022-11-23T04:45:55.296Z,23.40
2022-11-23T04:48:30.143Z,22.90
2022-11-23T04:51:01.412Z,19.80
2022-11-23T04:53:37.336Z,22.10
2022-11-23T04:56:09.623Z,22.20
2022-11-23T04:58:42.775Z,21.00
2022-11-23T05:01:15.176Z,20.90
2022-11-23T05:04:17.884Z,20.10
2022-11-23T05:06:49.930Z,18.40
2022-11-23T05:09:22.209Z,18.80
2022-11-23T05:12:01.739Z,16.90
2022-11-23T05:14:32.972Z,15.50
2022-11-23T05:17:05.780Z,17.60
2022-11-23T05:19:36.738Z,18.70
2022-11-23T05:22:07.842Z,18.20
2022-11-23T05:24:40.130Z,20.20
2022-11-23T05:27:14.125Z,19.60
2022-11-23T05:29:45.177Z,19.60
2022-11-23T05:32:16.097Z,18.10
2022-11-23T05:34:47.064Z,16.80
2022-11-23T05:37:19.245Z,17.80
2022-11-23T05:40:12.371Z,17.80
2022-11-23T05:42:43.308Z,15.00
2022-11-23T05:45:19.077Z,17.20
2022-11-23T05:47:54.398Z,16.70
2022-11-23T05:50:33.162Z,12.80
2022-11-23T05:53:23.086Z,12.50
2022-11-23T05:56:02.157Z,14.40
2022-11-23T05:58:33.929Z,13.50
2022-11-23T06:01:05.420Z,15.80
2022-11-23T06:03:39.088Z,14.40
2022-11-23T06:06:10.610Z,15.80
2022-11-23T06:09:05.016Z,15.40
2022-11-23T06:11:57.488Z,12.90
2022-11-23T06:14:49.144Z,13.40
2022-11-23T06:17:42.510Z,15.00
2022-11-23T06:20:38.437Z,15.30
2022-11-23T06:23:31.053Z,16.40
2022-11-23T06:26:22.806Z,14.50
2022-11-23T06:29:14.751Z,15.50
2022-11-23T06:32:08.806Z,16.00
2022-11-23T06:35:01.304Z,17.20
2022-11-23T06:37:56.028Z,16.30
2022-11-23T06:40:47.643Z,16.80
2022-11-23T06:44:37.572Z,16.00
2022-11-23T06:47:35.731Z,15.30
2022-11-23T06:50:27.329Z,17.20
2022-11-23T06:53:19.800Z,16.00
2022-11-23T06:56:13.491Z,17.40
2022-11-23T06:59:05.522Z,15.80
2022-11-23T07:02:08.187Z,17.50
2022-11-23T07:05:01.222Z,16.70
2022-11-23T07:07:53.813Z,16.10
2022-11-23T07:10:50.814Z,17.40
2022-11-23T07:13:42.532Z,16.90
2022-11-23T07:16:34.737Z,16.50
2022-11-23T07:19:26.894Z,16.50
2022-11-23T07:22:21.207Z,16.80
2022-11-23T07:25:16.760Z,16.30
2022-11-23T07:28:09.727Z,17.70
2022-11-23T07:31:01.773Z,15.80
2022-11-23T07:33:53.487Z,17.70
2022-11-23T07:36:46.303Z,18.90
2022-11-23T07:39:56.184Z,18.00
2022-11-23T07:42:49.683Z,17.90
2022-11-23T07:45:41.407Z,18.10
2022-11-23T07:48:36.580Z,18.40
2022-11-23T07:51:28.654Z,17.30
2022-11-23T07:54:23.653Z,18.20
2022-11-23T07:57:15.773Z,19.40
2022-11-23T08:00:10.908Z,18.70
2022-11-23T08:03:26.813Z,16.80
2022-11-23T08:06:18.635Z,19.20
2022-11-23T08:09:10.203Z,17.80
2022-11-23T08:12:01.876Z,19.40
2022-11-23T08:14:53.650Z,19.40
2022-11-23T08:17:45.089Z,16.30
2022-11-23T08:20:38.882Z,16.90
2022-11-23T08:23:31.077Z,18.20
2022-11-23T08:26:22.912Z,16.70
2022-11-23T08:29:14.533Z,17.80
2022-11-23T08:32:06.298Z,19.70
2022-11-23T08:34:57.841Z,18.80
2022-11-23T08:37:49.638Z,15.20
2022-11-23T08:40:41.900Z,17.90
2022-11-23T08:43:34.972Z,16.60
2022-11-23T08:46:26.546Z,19.60
2022-11-23T08:49:18.350Z,17.20
2022-11-23T08:52:10.463Z,19.80
2022-11-23T08:55:02.091Z,16.80
2022-11-23T08:57:55.888Z,17.30
2022-11-23T09:00:47.524Z,16.30
2022-11-23T09:03:39.639Z,17.20
2022-11-23T09:06:33.676Z,17.30
2022-11-23T09:09:25.299Z,16.80
2022-11-23T09:12:16.966Z,17.70
2022-11-23T09:15:10.168Z,14.80
2022-11-23T09:18:05.728Z,13.70
2022-11-23T09:20:57.865Z,13.20
2022-11-23T09:23:49.487Z,14.50
2022-11-23T09:26:41.753Z,14.60
2022-11-23T09:29:33.499Z,13.60
2022-11-23T09:32:25.069Z,14.20
2022-11-23T09:35:16.817Z,12.60
2022-11-23T09:38:08.428Z,14.10
2022-11-23T09:41:13.862Z,11.10
2022-11-23T09:44:12.039Z,13.40
2022-11-23T09:47:15.569Z,14.50
2022-11-23T09:50:15.888Z,12.60
2022-11-23T09:53:14.695Z,13.30
2022-11-23T09:56:07.012Z,12.40
2022-11-23T09:59:00.890Z,15.40
2022-11-23T10:01:52.885Z,15.20
2022-11-23T10:04:45.782Z,14.00
2022-11-23T10:07:48.677Z,14.30
2022-11-23T10:10:49.747Z,14.50
2022-11-23T10:13:46.902Z,15.50
2022-11-23T10:16:44.166Z,15.70
2022-11-23T10:20:00.338Z,17.00
2022-11-23T10:22:58.920Z,17.00
2022-11-23T10:25:52.920Z,13.70
2022-11-23T10:28:45.071Z,15.40
2022-11-23T10:31:38.231Z,11.90
2022-11-23T10:34:49.606Z,15.90
2022-11-23T10:37:42.451Z,14.90
2022-11-23T10:40:34.599Z,15.40
2022-11-23T10:43:30.652Z,15.20
2022-11-23T10:46:41.624Z,17.20
2022-11-23T10:49:34.336Z,16.70
2022-11-23T10:52:32.930Z,15.80
2022-11-23T10:55:30.606Z,17.20
2022-11-23T10:58:29.167Z,17.00
2022-11-23T11:01:24.741Z,15.30
2022-11-23T11:04:25.998Z,16.60
2022-11-23T11:07:28.588Z,16.30
2022-11-23T11:10:35.349Z,14.60
2022-11-23T11:16:26.760Z,16.90
2022-11-23T11:19:31.613Z,15.30
2022-11-23T11:22:34.947Z,17.30
2022-11-23T11:25:33.988Z,17.20
2022-11-23T11:28:35.464Z,16.40
2022-11-23T11:31:53.098Z,16.40
2022-11-23T11:34:50.637Z,16.10
2022-11-23T11:37:45.761Z,18.00
2022-11-23T11:40:42.927Z,14.80
2022-11-23T11:43:40.398Z,16.60
2022-11-23T11:46:37.401Z,17.30
2022-11-23T11:49:34.111Z,15.40
2022-11-23T11:52:29.820Z,14.70
2022-11-23T11:55:26.143Z,18.20
2022-11-23T11:58:19.377Z,17.60
2022-11-23T12:01:22.809Z,14.40
2022-11-23T12:04:21.510Z,15.50
2022-11-23T12:07:19.531Z,15.10
2022-11-23T12:10:18.637Z,16.30
2022-11-23T12:13:13.488Z,16.20
2022-11-23T12:16:16.222Z,16.10
2022-11-23T12:19:18.972Z,16.20
2022-11-23T12:22:30.037Z,16.50
2022-11-23T12:25:33.365Z,16.70
2022-11-23T12:28:43.191Z,16.60
2022-11-23T12:31:43.447Z,17.90
2022-11-23T12:35:15.525Z,17.60
2022-11-23T12:38:16.901Z,18.60
2022-11-23T12:41:23.335Z,18.40
2022-11-23T12:44:39.850Z,18.70
2022-11-23T12:47:44.011Z,17.20
2022-11-23T12:50:41.272Z,18.50
2022-11-23T12:53:45.570Z,18.60
2022-11-23T12:57:01.664Z,17.50
2022-11-23T12:59:57.146Z,18.60
2022-11-23T13:03:35.909Z,18.60
2022-11-23T13:07:27.330Z,20.70
2022-11-23T13:13:38.169Z,20.80
2022-11-23T13:16:42.661Z,21.10
2022-11-23T13:19:54.831Z,22.30
2022-11-23T13:22:47.648Z,22.30
2022-11-23T13:25:40.826Z,17.50
2022-11-23T13:28:33.649Z,22.00
2022-11-23T13:31:27.997Z,23.30
2022-11-23T13:34:46.113Z,22.80
2022-11-23T13:38:17.919Z,21.80
2022-11-23T13:41:42.654Z,22.60
2022-11-23T13:44:35.412Z,23.00
2022-11-23T13:47:27.994Z,23.60
2022-11-23T13:50:20.798Z,24.10
2022-11-23T13:53:26.393Z,25.20
2022-11-23T13:56:31.958Z,17.00
2022-11-23T13:59:33.596Z,22.20
2022-11-23T14:02:30.752Z,23.20
2022-11-23T14:06:00.582Z,24.70
2022-11-23T14:08:54.868Z,24.20
2022-11-23T14:12:00.109Z,25.40
2022-11-23T14:14:59.697Z,25.90
2022-11-23T14:18:19.808Z,26.70
2022-11-23T14:21:23.822Z,26.60
2022-11-23T14:24:39.620Z,27.30
2022-11-23T14:27:47.803Z,25.20
2022-11-23T14:30:58.356Z,25.70
2022-11-23T14:33:54.714Z,24.80
2022-11-23T14:36:55.420Z,24.60
2022-11-23T14:40:04.400Z,23.20
2022-11-23T14:42:58.381Z,24.90
2022-11-23T14:45:50.211Z,23.10
2022-11-23T14:48:41.938Z,26.30
2022-11-23T14:51:34.289Z,23.40
2022-11-23T14:54:26.912Z,22.60
2022-11-23T14:57:20.777Z,24.40
2022-11-23T15:00:28.679Z,25.40
2022-11-23T15:03:49.474Z,20.70
2022-11-23T15:06:42.330Z,24.40
2022-11-23T15:09:51.212Z,26.10
2022-11-23T15:12:47.575Z,28.00
2022-11-23T15:15:39.727Z,26.80
2022-11-23T15:18:33.450Z,27.90
2022-11-23T15:21:28.238Z,26.30
2022-11-23T15:24:27.623Z,28.70
2022-11-23T15:27:26.426Z,29.80
2022-11-23T15:30:21.514Z,30.50
2022-11-23T15:33:13.795Z,30.00
2022-11-23T15:36:07.157Z,29.40
2022-11-23T15:39:01.448Z,27.70
2022-11-23T15:41:54.247Z,28.90
2022-11-23T15:44:51.270Z,29.30
2022-11-23T15:47:46.561Z,28.60
2022-11-23T15:50:46.084Z,24.90
2022-11-23T15:53:50.408Z,27.10
2022-11-23T15:56:45.940Z,26.70
2022-11-23T15:59:44.002Z,28.70
2022-11-23T16:02:37.001Z,29.30
2022-11-23T16:05:29.003Z,30.30
2022-11-23T16:08:27.444Z,30.40
2022-11-23T16:11:37.827Z,28.40
2022-11-23T16:14:33.387Z,27.00
2022-11-23T16:20:17.941Z,30.70
2022-11-23T16:23:20.918Z,26.50
2022-11-23T16:26:13.296Z,32.60
2022-11-23T16:29:06.014Z,33.50
2022-11-23T16:32:00.425Z,30.20
2022-11-23T16:34:51.811Z,33.40
2022-11-23T16:37:43.554Z,27.00
2022-11-23T16:40:35.451Z,30.00
2022-11-23T16:43:27.408Z,30.10
2022-11-23T16:46:19.002Z,31.90
2022-11-23T16:49:19.595Z,31.00
2022-11-23T16:52:11.852Z,28.10
2022-11-23T16:55:03.429Z,29.20
2022-11-23T16:57:56.204Z,28.80
2022-11-23T17:00:49.113Z,27.60
2022-11-23T17:03:41.511Z,25.30
2022-11-23T17:06:33.307Z,30.20
2022-11-23T17:09:24.906Z,25.10
2022-11-23T17:12:19.474Z,29.20
2022-11-23T17:15:14.792Z,26.10
2022-11-23T17:18:06.641Z,28.80
2022-11-23T17:20:58.478Z,27.40
2022-11-23T17:23:51.975Z,26.60
2022-11-23T17:26:46.476Z,28.30
2022-11-23T17:29:41.826Z,30.30
2022-11-23T17:32:34.038Z,27.20
2022-11-23T17:35:25.623Z,24.40
2022-11-23T17:38:20.978Z,26.90
2022-11-23T17:41:12.510Z,26.00
2022-11-23T17:44:04.135Z,26.70
2022-11-23T17:46:58.729Z,24.20
2022-11-23T17:49:50.256Z,24.90
2022-11-23T17:52:44.456Z,25.90
2022-11-23T17:55:36.200Z,25.60
2022-11-23T17:58:28.008Z,27.70
2022-11-23T18:01:21.519Z,28.50
2022-11-23T18:04:13.378Z,25.70
2022-11-23T18:07:05.251Z,27.40
2022-11-23T18:09:57.191Z,25.10
2022-11-23T18:12:49.232Z,27.70
2022-11-23T18:15:41.291Z,27.70
2022-11-23T18:18:34.254Z,26.30
2022-11-23T18:21:31.513Z,27.20
2022-11-23T18:24:23.401Z,25.70
2022-11-23T18:27:15.076Z,28.50
2022-11-23T18:30:08.375Z,30.00
2022-11-23T18:32:59.847Z,31.50
2022-11-23T18:35:51.710Z,31.70
2022-11-23T18:38:45.967Z,27.20
2022-11-23T18:41:18.435Z,29.00
2022-11-23T18:43:49.302Z,24.80
2022-11-23T18:46:20.476Z,32.00
2022-11-23T18:48:53.715Z,33.50
2022-11-23T18:51:24.851Z,31.50
2022-11-23T18:53:55.946Z,32.60
2022-11-23T18:56:27.754Z,30.50
2022-11-23T18:59:07.684Z,26.50
2022-11-23T19:01:39.334Z,29.30
2022-11-23T19:04:10.918Z,25.60
2022-11-23T19:06:41.962Z,27.60
2022-11-23T19:09:15.479Z,29.40
2022-11-23T19:11:47.177Z,29.60
2022-11-23T19:14:18.525Z,30.80
2022-11-23T19:16:49.654Z,30.30
2022-11-23T19:19:20.831Z,31.80
2022-11-23T19:21:51.929Z,27.40
2022-11-23T19:24:23.371Z,29.70
2022-11-23T19:26:54.575Z,29.00
2022-11-23T19:29:26.604Z,29.20
2022-11-23T19:31:57.686Z,26.90
2022-11-23T19:34:29.937Z,28.70
2022-11-23T19:37:00.966Z,27.10
2022-11-23T19:39:32.409Z,25.90
2022-11-23T19:42:04.952Z,28.70
2022-11-23T19:44:36.185Z,27.10
2022-11-23T19:47:13.713Z,27.40
2022-11-23T19:49:47.241Z,26.80
2022-11-23T19:52:18.703Z,31.40
2022-11-23T19:54:49.644Z,29.20
2022-11-23T19:57:21.616Z,31.90
2022-11-23T19:59:52.513Z,28.40
2022-11-23T20:02:26.726Z,29.80
2022-11-23T20:04:57.786Z,30.80
2022-11-23T20:07:28.883Z,29.70
2022-11-23T20:10:00.126Z,29.30
2022-11-23T20:12:31.272Z,27.80
2022-11-23T20:15:05.669Z,30.10
2022-11-23T20:17:36.867Z,27.30
2022-11-23T20:20:10.646Z,27.60
2022-11-23T20:22:42.962Z,26.40
2022-11-23T20:25:14.832Z,26.50
2022-11-23T20:27:45.895Z,25.60
2022-11-23T20:30:19.050Z,25.50
2022-11-23T20:32:51.930Z,27.10
2022-11-23T20:35:24.404Z,23.50
2022-11-23T20:37:55.771Z,27.60
2022-11-23T20:40:26.852Z,27.30
2022-11-23T20:42:59.842Z,26.70
2022-11-23T20:45:31.560Z,27.80
2022-11-23T20:48:02.543Z,25.50
2022-11-23T20:50:33.747Z,27.50
2022-11-23T20:53:05.558Z,28.20
2022-11-23T20:55:37.068Z,29.00
2022-11-23T20:58:08.314Z,27.30
2022-11-23T21:00:39.138Z,25.40
2022-11-23T21:03:11.338Z,27.20
2022-11-23T21:05:42.497Z,23.90
2022-11-23T21:08:22.005Z,25.30
2022-11-23T21:11:13.198Z,23.80
2022-11-23T21:14:01.866Z,24.70
2022-11-23T21:16:32.967Z,21.90
2022-11-23T21:19:05.365Z,25.40
2022-11-23T21:21:38.028Z,22.70
2022-11-23T21:24:10.220Z,23.00
2022-11-23T21:26:41.122Z,24.70
2022-11-23T21:29:12.306Z,24.20
2022-11-23T21:31:46.641Z,23.80
2022-11-23T21:34:21.506Z,24.80
2022-11-23T21:36:53.940Z,26.00
2022-11-23T21:39:30.965Z,24.20
2022-11-23T21:42:03.570Z,24.70
2022-11-23T21:44:35.047Z,26.40
2022-11-23T21:47:07.230Z,23.70
2022-11-23T21:49:38.435Z,24.50
2022-11-23T21:52:10.030Z,21.80
2022-11-23T21:54:47.313Z,25.30
2022-11-23T21:57:20.572Z,21.60
2022-11-23T21:59:51.992Z,22.50
2022-11-23T22:10:55.520Z,22.70
2022-11-23T22:13:30.459Z,24.70
2022-11-23T22:16:15.619Z,21.90
2022-11-23T22:18:53.936Z,24.30
2022-11-23T22:21:30.591Z,25.60
2022-11-23T22:24:06.339Z,26.00
2022-11-23T22:26:38.987Z,24.10
2022-11-23T22:29:11.132Z,25.10
2022-11-23T22:31:43.806Z,25.90
2022-11-23T22:34:21.683Z,27.00
2022-11-23T22:36:54.243Z,24.40
2022-11-23T22:39:26.104Z,26.10
2022-11-23T22:41:57.560Z,25.40
2022-11-23T22:44:30.041Z,24.70
2022-11-23T22:47:01.667Z,22.40
2022-11-23T22:49:36.221Z,24.90
2022-11-23T22:52:08.358Z,25.50
2022-11-23T22:54:39.948Z,25.50
2022-11-23T22:57:11.743Z,21.90
2022-11-23T22:59:43.370Z,20.60
2022-11-23T23:02:15.165Z,22.20
2022-11-23T23:04:47.091Z,24.00
2022-11-23T23:07:18.582Z,21.30
2022-11-23T23:09:50.306Z,24.20
2022-11-23T23:12:22.274Z,22.30
2022-11-23T23:14:53.650Z,23.40
2022-11-23T23:17:25.557Z,22.60
2022-11-23T23:19:56.983Z,24.60
2022-11-23T23:22:28.798Z,23.90
2022-11-23T23:25:06.487Z,25.40
2022-11-23T23:27:39.760Z,23.80
2022-11-23T23:30:13.364Z,24.90
2022-11-23T23:32:45.066Z,23.70
2022-11-23T23:35:16.771Z,21.40
2022-11-23T23:37:54.985Z,22.80
2022-11-23T23:40:27.162Z,22.10
2022-11-23T23:43:00.784Z,22.40
2022-11-23T23:45:32.399Z,22.30
2022-11-23T23:48:04.303Z,23.80
2022-11-23T23:50:38.029Z,21.90
2022-11-23T23:53:10.093Z,19.50
2022-11-23T23:55:41.823Z,21.00
2022-11-23T23:58:13.552Z,20.90
